Time;durP1;ratioP1;P1;durP2;ratioP2;P2;SDS_P1;SDS_P2;PMS_P1;PMS_P2;Temp;Humidity;BMP_temperature;BMP_pressure;BME280_temperature;BME280_humidity;BME280_pressure;Samples;Min_cycle;Max_cycle;Signal;HPM_P1;HPM_P2
2022/10/14 00:01:22;;;;;;;81.00;29.98;;;;;;;7.75;100.00;101632.31;5053856;28;20056;-75
2022/10/14 00:03:48;;;;;;;71.63;29.33;;;;;;;7.85;100.00;101635.19;5053498;28;20504;-75
2022/10/14 00:06:17;;;;;;;63.10;26.45;;;;;;;7.87;100.00;101634.13;5069027;28;20044;-75
2022/10/14 00:08:43;;;;;;;62.30;24.45;;;;;;;7.88;100.00;101633.19;5053732;28;20091;-75
2022/10/14 00:11:12;;;;;;;57.47;24.58;;;;;;;7.90;100.00;101631.28;5069493;28;20088;-75
2022/10/14 00:13:38;;;;;;;58.05;24.42;;;;;;;7.95;100.00;101623.84;5053785;28;20036;-77
2022/10/14 00:16:05;;;;;;;51.85;22.40;;;;;;;7.93;100.00;101606.38;5053645;28;20588;-75
2022/10/14 00:18:31;;;;;;;45.03;21.75;;;;;;;7.93;100.00;101603.75;5053422;28;20029;-75
2022/10/14 00:20:59;;;;;;;52.88;21.92;;;;;;;7.92;100.00;101600.22;5053129;28;20424;-75
2022/10/14 00:23:25;;;;;;;53.47;21.90;;;;;;;7.91;100.00;101597.66;5053244;28;20155;-75
2022/10/14 00:25:51;;;;;;;44.63;22.05;;;;;;;7.86;100.00;101586.53;5053830;28;20068;-75
2022/10/14 00:28:16;;;;;;;40.70;20.30;;;;;;;7.81;100.00;101580.69;5053578;28;20052;-75
2022/10/14 00:30:42;;;;;;;39.40;18.75;;;;;;;7.80;100.00;101581.66;5053379;28;20025;-75
2022/10/14 00:33:07;;;;;;;38.17;18.52;;;;;;;7.79;100.00;101579.97;5068657;28;20370;-75
2022/10/14 00:35:32;;;;;;;38.72;18.88;;;;;;;7.81;100.00;101581.56;5053260;28;20119;-75
2022/10/14 00:37:58;;;;;;;34.58;17.20;;;;;;;7.88;100.00;101579.34;5052147;28;20029;-75
2022/10/14 00:40:24;;;;;;;35.25;17.55;;;;;;;7.94;100.00;101579.78;5068527;28;20461;-75
2022/10/14 00:42:50;;;;;;;38.88;18.88;;;;;;;7.99;100.00;101576.81;5053212;28;20059;-76
2022/10/14 00:45:20;;;;;;;37.72;17.20;;;;;;;8.04;100.00;101574.69;5053361;28;20033;-75
2022/10/14 00:47:48;;;;;;;37.22;16.75;;;;;;;8.06;100.00;101572.81;5053063;28;20078;-76
2022/10/14 00:50:14;;;;;;;34.58;15.90;;;;;;;8.09;100.00;101571.72;5053396;28;20029;-75
2022/10/14 00:52:40;;;;;;;30.58;14.98;;;;;;;8.10;100.00;101573.44;5052831;28;20439;-75
2022/10/14 00:55:12;;;;;;;28.40;14.32;;;;;;;8.10;100.00;101571.63;5051759;28;20037;-75
2022/10/14 00:57:37;;;;;;;31.08;14.45;;;;;;;8.12;100.00;101575.03;5053049;28;20521;-75
2022/10/14 01:00:08;;;;;;;26.05;14.45;;;;;;;8.15;100.00;101573.09;5053104;28;20112;-76
2022/10/14 01:02:34;;;;;;;29.58;15.20;;;;;;;8.16;100.00;101574.81;5053537;28;20035;-75
2022/10/14 01:05:01;;;;;;;24.33;13.30;;;;;;;8.19;100.00;101577.25;5053370;28;20033;-75
2022/10/14 01:07:26;;;;;;;31.98;14.05;;;;;;;8.19;100.00;101564.84;5052866;28;20025;-76
2022/10/14 01:10:30;;;;;;;33.55;15.57;;;;;;;8.18;100.00;101568.47;5051447;28;20132;-76
2022/10/14 01:13:20;;;;;;;34.95;15.52;;;;;;;8.18;100.00;101579.06;5026909;28;20468;-76
2022/10/14 01:16:15;;;;;;;35.30;15.68;;;;;;;8.19;100.00;101575.44;5051481;28;20057;-77
2022/10/14 01:18:53;;;;;;;36.88;16.38;;;;;;;8.21;100.00;101578.00;5047170;28;20401;-76
2022/10/14 01:21:32;;;;;;;35.00;16.52;;;;;;;8.24;100.00;101569.81;5052933;28;20105;-76
2022/10/14 01:24:06;;;;;;;41.20;17.73;;;;;;;8.26;100.00;101559.97;5052740;28;20025;-76
2022/10/14 01:26:50;;;;;;;42.22;18.15;;;;;;;8.30;100.00;101561.47;5052065;28;20040;-76
2022/10/14 01:29:43;;;;;;;37.72;17.20;;;;;;;8.33;100.00;101563.91;5053194;28;20055;-75
2022/10/14 01:32:29;;;;;;;38.05;17.00;;;;;;;8.38;100.00;101561.75;5052850;28;20029;-76
2022/10/14 01:35:12;;;;;;;35.50;15.75;;;;;;;8.39;100.00;101555.50;5056836;28;20128;-74
2022/10/14 01:37:47;;;;;;;36.33;15.98;;;;;;;8.40;100.00;101551.06;5056547;28;20397;-74
2022/10/14 01:40:21;;;;;;;36.63;16.45;;;;;;;8.41;100.00;101553.59;5057005;28;20059;-74
2022/10/14 01:42:47;;;;;;;36.78;17.00;;;;;;;8.42;100.00;101544.69;5056296;28;20366;-74
2022/10/14 01:45:21;;;;;;;35.33;15.77;;;;;;;8.44;100.00;101536.66;5056253;28;20132;-74
2022/10/14 01:47:52;;;;;;;34.30;15.52;;;;;;;8.47;100.00;101539.94;5056463;28;20029;-74
2022/10/14 01:50:20;;;;;;;46.55;18.95;;;;;;;8.48;100.00;101535.50;5056685;28;20029;-74
2022/10/14 01:52:54;;;;;;;52.53;19.65;;;;;;;8.52;100.00;101531.66;5055136;28;20547;-74
2022/10/14 01:55:24;;;;;;;49.50;19.02;;;;;;;8.55;100.00;101530.59;5056808;28;20055;-74
2022/10/14 01:57:52;;;;;;;49.78;20.38;;;;;;;8.57;100.00;101526.00;5056146;28;20039;-75
2022/10/14 02:00:18;;;;;;;50.92;20.40;;;;;;;8.60;100.00;101526.66;5056386;28;20021;-75
2022/10/14 02:02:43;;;;;;;50.10;20.08;;;;;;;8.62;100.00;101527.38;5056174;28;20033;-75
2022/10/14 02:05:20;;;;;;;46.88;19.35;;;;;;;8.64;100.00;101524.63;5055797;28;20033;-75
2022/10/14 02:07:50;;;;;;;52.70;19.48;;;;;;;8.66;100.00;101525.38;5056270;28;20090;-74
2022/10/14 02:10:34;;;;;;;63.40;21.67;;;;;;;8.69;100.00;101526.94;5056243;28;20021;-75
2022/10/14 02:13:10;;;;;;;57.65;21.25;;;;;;;8.71;100.00;101525.88;5055603;28;20072;-75
2022/10/14 02:15:51;;;;;;;58.92;22.90;;;;;;;8.73;100.00;101521.34;5056216;28;20116;-75
2022/10/14 02:18:31;;;;;;;57.97;23.13;;;;;;;8.77;100.00;101516.63;5055731;28;20071;-75
2022/10/14 02:21:09;;;;;;;60.25;23.05;;;;;;;8.81;100.00;101512.81;5055522;28;20037;-75
2022/10/14 02:23:49;;;;;;;66.32;22.90;;;;;;;8.85;100.00;101510.78;5055997;28;20477;-75
2022/10/14 02:26:15;;;;;;;56.25;23.10;;;;;;;8.87;100.00;101515.03;5055792;28;20410;-75
2022/10/14 02:28:42;;;;;;;52.28;21.73;;;;;;;8.90;100.00;101512.13;5071467;28;20044;-75
2022/10/14 02:31:13;;;;;;;57.15;22.58;;;;;;;8.91;100.00;101500.56;5055285;28;20029;-75
2022/10/14 02:33:42;;;;;;;59.78;23.35;;;;;;;8.95;100.00;101511.81;5055678;28;20033;-75
2022/10/14 02:36:10;;;;;;;59.90;22.17;;;;;;;8.97;100.00;101496.59;5055508;28;20071;-76
2022/10/14 02:38:38;;;;;;;53.58;22.00;;;;;;;8.98;100.00;101490.34;5055347;28;20116;-75
2022/10/14 02:41:06;;;;;;;58.05;23.58;;;;;;;8.98;100.00;101485.88;5054102;28;20465;-75
2022/10/14 02:43:32;;;;;;;57.15;23.27;;;;;;;9.01;100.00;101487.47;5054773;28;20040;-75
2022/10/14 02:46:00;;;;;;;56.85;22.70;;;;;;;9.03;100.00;101485.53;5055240;28;20033;-76
2022/10/14 02:48:25;;;;;;;51.88;21.65;;;;;;;9.05;100.00;101482.78;5055962;28;20414;-75
2022/10/14 02:50:51;;;;;;;64.63;22.48;;;;;;;9.07;100.00;101473.72;5054071;28;20127;-75
2022/10/14 02:53:16;;;;;;;68.00;24.48;;;;;;;9.09;100.00;101474.47;5055163;28;20073;-75
2022/10/14 02:55:42;;;;;;;93.35;30.10;;;;;;;9.15;100.00;101481.13;5053933;28;20094;-75
2022/10/14 02:58:07;;;;;;;68.63;26.27;;;;;;;9.21;100.00;101477.16;5053702;28;20496;-75
2022/10/14 03:00:33;;;;;;;74.32;27.33;;;;;;;9.23;100.00;101476.09;5054980;28;20468;-77
2022/10/14 03:02:58;;;;;;;69.43;26.38;;;;;;;9.24;100.00;101464.53;5054692;28;20099;-80
2022/10/14 03:05:24;;;;;;;71.38;26.30;;;;;;;9.26;100.00;101461.75;5053511;28;20527;-75
2022/10/14 03:07:49;;;;;;;68.93;25.98;;;;;;;9.28;100.00;101459.81;5055188;28;20087;-75
2022/10/14 03:10:15;;;;;;;76.60;28.77;;;;;;;9.30;100.00;101458.75;5054762;28;20039;-75
2022/10/14 03:12:40;;;;;;;78.05;27.98;;;;;;;9.34;100.00;101448.72;5055201;28;20061;-75
2022/10/14 03:15:06;;;;;;;87.43;30.58;;;;;;;9.37;100.00;101447.66;5054508;28;20029;-75
2022/10/14 03:17:32;;;;;;;81.85;30.00;;;;;;;9.39;100.00;101437.75;5053542;28;20148;-75
2022/10/14 03:19:58;;;;;;;123.47;36.92;;;;;;;9.42;100.00;101438.38;5053585;28;20060;-75
2022/10/14 03:22:24;;;;;;;105.60;36.97;;;;;;;9.48;100.00;101443.22;5054286;28;20500;-75
2022/10/14 03:24:49;;;;;;;110.50;37.30;;;;;;;9.51;100.00;101437.69;5054654;28;20037;-75
2022/10/14 03:27:14;;;;;;;114.90;36.75;;;;;;;9.56;100.00;101442.63;5054267;28;20380;-75
2022/10/14 03:29:40;;;;;;;134.40;39.83;;;;;;;9.60;100.00;101430.81;5054107;28;20032;-75
2022/10/14 03:32:05;;;;;;;136.48;41.13;;;;;;;9.65;100.00;101433.94;5053711;28;20042;-75
2022/10/14 03:34:30;;;;;;;132.77;41.55;;;;;;;9.70;100.00;101430.94;5052982;28;20125;-75
2022/10/14 03:36:56;;;;;;;138.07;42.50;;;;;;;9.72;100.00;101421.03;5053389;28;20033;-75
2022/10/14 03:39:21;;;;;;;206.88;47.40;;;;;;;9.75;100.00;101423.47;5054180;28;20096;-75
2022/10/14 03:41:47;;;;;;;163.65;45.80;;;;;;;9.76;100.00;101417.16;5054435;28;20112;-75
2022/10/14 03:44:12;;;;;;;153.75;45.00;;;;;;;9.82;100.00;101424.69;5053862;28;20390;-75
2022/10/14 03:46:38;;;;;;;173.93;47.40;;;;;;;9.85;100.00;101415.59;5053925;28;20032;-75
2022/10/14 03:49:03;;;;;;;166.15;46.33;;;;;;;9.89;100.00;101417.91;5053845;28;20473;-75
2022/10/14 03:51:28;;;;;;;171.52;46.67;;;;;;;9.92;100.00;101408.00;5054248;28;20472;-75
2022/10/14 03:53:54;;;;;;;182.02;48.50;;;;;;;9.96;100.00;101402.31;5054469;28;20024;-75
2022/10/14 03:56:19;;;;;;;186.85;47.17;;;;;;;9.98;100.00;101408.34;5053327;28;20083;-75
2022/10/14 03:58:44;;;;;;;160.80;47.45;;;;;;;10.01;100.00;101394.81;5053953;28;20033;-75
2022/10/14 04:01:09;;;;;;;159.57;46.95;;;;;;;10.03;100.00;101402.66;5053575;28;20036;-75
2022/10/14 04:03:35;;;;;;;156.73;46.90;;;;;;;10.03;100.00;101389.38;5052449;28;20029;-75
2022/10/14 04:06:00;;;;;;;162.27;44.67;;;;;;;10.04;100.00;101388.41;5053459;28;20061;-75
2022/10/14 04:08:25;;;;;;;161.23;45.45;;;;;;;10.03;100.00;101389.38;5054172;28;20029;-76
2022/10/14 04:10:54;;;;;;;150.20;44.80;;;;;;;10.03;100.00;101389.38;5052321;28;20045;-75
2022/10/14 04:13:20;;;;;;;150.55;43.25;;;;;;;10.03;100.00;101392.03;5052556;28;20367;-75
2022/10/14 04:15:45;;;;;;;140.15;41.95;;;;;;;10.03;100.00;101386.72;5052878;28;20059;-75
2022/10/14 04:18:11;;;;;;;147.02;41.75;;;;;;;10.04;100.00;101383.09;5052330;28;20056;-75
2022/10/14 04:20:37;;;;;;;164.63;42.40;;;;;;;10.02;100.00;101391.19;5052474;28;20037;-75
2022/10/14 04:23:02;;;;;;;157.60;45.85;;;;;;;10.03;100.00;101386.72;5052700;28;20483;-75
2022/10/14 04:25:28;;;;;;;150.23;42.92;;;;;;;10.05;100.00;101380.31;5052854;28;20127;-75
2022/10/14 04:27:53;;;;;;;174.10;46.00;;;;;;;10.11;100.00;101391.44;5051675;28;20114;-75
2022/10/14 04:30:18;;;;;;;157.43;44.13;;;;;;;10.13;100.00;101390.34;5052649;28;20028;-75
2022/10/14 04:32:45;;;;;;;174.40;45.45;;;;;;;10.18;100.00;101376.66;5052500;28;20116;-75
2022/10/14 04:35:10;;;;;;;231.35;46.67;;;;;;;10.20;100.00;101377.41;5051339;28;20033;-75
2022/10/14 04:37:35;;;;;;;192.63;47.38;;;;;;;10.24;100.00;101369.06;5052151;28;20036;-75
2022/10/14 04:40:01;;;;;;;225.77;51.03;;;;;;;10.30;100.00;101362.41;5052673;28;20032;-76
2022/10/14 04:42:26;;;;;;;209.05;49.60;;;;;;;10.34;100.00;101360.34;5052728;28;20067;-76
2022/10/14 04:44:51;;;;;;;223.43;49.53;;;;;;;10.40;100.00;101358.06;5051186;28;20485;-75
2022/10/14 04:47:17;;;;;;;208.55;48.03;;;;;;;10.44;100.00;101355.97;5052336;28;20032;-75
2022/10/14 04:49:42;;;;;;;208.55;46.22;;;;;;;10.48;100.00;101349.44;5052333;28;20424;-75
2022/10/14 04:52:07;;;;;;;194.35;45.67;;;;;;;10.52;100.00;101347.38;5052538;28;20060;-74
2022/10/14 04:54:33;;;;;;;187.05;44.50;;;;;;;10.56;100.00;101346.16;5051061;28;20119;-74
2022/10/14 04:56:58;;;;;;;203.35;45.25;;;;;;;10.57;100.00;101338.03;5052590;28;20179;-75
2022/10/14 04:59:23;;;;;;;173.23;42.95;;;;;;;10.61;100.00;101337.78;5051949;28;20039;-75
2022/10/14 05:01:49;;;;;;;151.05;39.85;;;;;;;10.64;100.00;101338.34;5052154;28;20029;-75
2022/10/14 05:04:14;;;;;;;156.75;38.78;;;;;;;10.67;100.00;101323.97;5052347;28;20036;-80
2022/10/14 05:06:40;;;;;;;143.15;37.05;;;;;;;10.71;100.00;101326.25;5052388;28;20127;-74
2022/10/14 05:09:05;;;;;;;141.63;34.63;;;;;;;10.74;100.00;101325.97;5067094;28;20033;-73
2022/10/14 05:13:29;;;;;;;129.10;32.78;;;;;;;10.77;100.00;101320.41;5069124;28;20886;-74
2022/10/14 05:15:55;;;;;;;128.55;32.85;;;;;;;10.81;100.00;101321.00;5069438;28;20572;-76
2022/10/14 05:18:20;;;;;;;118.80;31.52;;;;;;;10.82;100.00;101322.66;5069132;28;20120;-74
2022/10/14 05:20:46;;;;;;;100.25;28.33;;;;;;;10.84;100.00;101311.88;5069586;28;20072;-74
2022/10/14 05:23:12;;;;;;;109.28;29.13;;;;;;;10.82;100.00;101305.88;5069630;28;20040;-74
2022/10/14 05:25:37;;;;;;;96.75;26.63;;;;;;;10.82;100.00;101304.03;5069182;28;20074;-75
2022/10/14 05:28:03;;;;;;;77.50;24.80;;;;;;;10.84;100.00;101307.44;5069993;28;20067;-74
2022/10/14 05:30:28;;;;;;;123.68;26.98;;;;;;;10.87;100.00;101301.00;5069124;28;20466;-75
2022/10/14 05:32:53;;;;;;;77.72;23.38;;;;;;;10.90;100.00;101298.09;5069282;28;20041;-75
2022/10/14 05:35:19;;;;;;;78.97;22.40;;;;;;;10.93;100.00;101292.50;5069184;28;20029;-77
2022/10/14 05:37:44;;;;;;;88.85;23.90;;;;;;;10.93;100.00;101293.34;5069342;28;20037;-75
2022/10/14 05:40:10;;;;;;;72.15;21.92;;;;;;;10.93;100.00;101287.19;5069236;28;20047;-73
2022/10/14 05:42:36;;;;;;;76.78;23.55;;;;;;;10.93;100.00;101277.38;5068747;28;20079;-73
2022/10/14 05:45:02;;;;;;;83.35;23.13;;;;;;;10.97;100.00;101279.75;5068939;28;20033;-74
2022/10/14 05:47:27;;;;;;;80.40;22.25;;;;;;;11.00;100.00;101285.69;5068709;28;20052;-73
2022/10/14 05:49:52;;;;;;;71.93;22.08;;;;;;;11.01;100.00;101291.84;5067357;28;20151;-73
2022/10/14 05:52:18;;;;;;;78.18;22.50;;;;;;;11.01;100.00;101292.69;5068578;28;20033;-73
2022/10/14 05:54:43;;;;;;;77.32;22.15;;;;;;;11.02;100.00;101288.22;5068556;28;20330;-74
2022/10/14 05:57:09;;;;;;;73.53;22.27;;;;;;;11.02;100.00;101285.56;5068900;28;20076;-74
2022/10/14 05:59:34;;;;;;;70.10;22.55;;;;;;;11.02;100.00;101291.72;5066849;28;20044;-74
2022/10/14 06:02:00;;;;;;;74.03;21.90;;;;;;;11.03;100.00;101285.41;5067454;28;20041;-74
2022/10/14 06:04:26;;;;;;;69.95;22.70;;;;;;;11.03;100.00;101288.09;5068497;28;20040;-74
2022/10/14 06:06:51;;;;;;;77.90;22.48;;;;;;;11.04;100.00;101279.09;5068760;28;20025;-74
2022/10/14 06:09:17;;;;;;;70.97;21.02;;;;;;;11.06;100.00;101278.97;5067020;28;20108;-74
2022/10/14 06:11:43;;;;;;;65.25;20.20;;;;;;;11.06;100.00;101279.84;5067818;28;20290;-74
2022/10/14 06:14:08;;;;;;;59.08;19.90;;;;;;;11.08;100.00;101274.38;5068289;28;20033;-74
2022/10/14 06:16:34;;;;;;;70.00;20.55;;;;;;;11.09;100.00;101268.91;5066463;28;20025;-75
2022/10/14 06:19:00;;;;;;;65.05;19.15;;;;;;;11.10;100.00;101267.09;5068025;28;20512;-75
2022/10/14 06:21:25;;;;;;;60.33;19.15;;;;;;;11.12;100.00;101265.13;5067980;28;20500;-75
2022/10/14 06:23:51;;;;;;;59.95;19.20;;;;;;;11.13;100.00;101272.16;5059179;28;20033;-74
2022/10/14 06:26:16;;;;;;;60.42;17.10;;;;;;;11.14;100.00;101268.50;5055095;28;20048;-74
2022/10/14 06:28:42;;;;;;;66.20;18.73;;;;;;;11.17;100.00;101256.75;5054607;28;20404;-74
2022/10/14 06:31:07;;;;;;;58.20;17.70;;;;;;;11.18;100.00;101259.28;5053574;28;20033;-74
2022/10/14 06:33:33;;;;;;;62.25;18.30;;;;;;;11.20;100.00;101260.00;5054494;28;20036;-74
2022/10/14 06:36:01;;;;;;;64.90;19.05;;;;;;;11.21;100.00;101256.38;5054688;28;20432;-74
2022/10/14 06:38:26;;;;;;;64.68;18.30;;;;;;;11.23;100.00;101257.06;5054276;28;20041;-80
2022/10/14 06:40:52;;;;;;;66.38;18.95;;;;;;;11.24;100.00;101256.09;5055067;28;20483;-75
2022/10/14 06:43:18;;;;;;;62.28;18.58;;;;;;;11.26;100.00;101251.47;5054500;28;20037;-75
2022/10/14 06:45:43;;;;;;;66.45;18.42;;;;;;;11.28;100.00;101251.31;5053011;28;20044;-75
2022/10/14 06:48:09;;;;;;;58.60;19.02;;;;;;;11.30;100.00;101249.41;5054724;28;20459;-74
2022/10/14 06:50:35;;;;;;;63.78;18.20;;;;;;;11.33;100.00;101245.59;5054037;28;20361;-75
2022/10/14 06:53:00;;;;;;;59.65;18.48;;;;;;;11.34;100.00;101245.47;5054485;28;20032;-75
2022/10/14 06:55:26;;;;;;;81.30;20.98;;;;;;;11.37;100.00;101250.53;5054813;28;20036;-74
2022/10/14 06:57:51;;;;;;;74.03;21.27;;;;;;;11.40;100.00;101244.09;5053896;28;20075;-74
2022/10/14 07:00:17;;;;;;;89.03;24.38;;;;;;;11.43;100.00;101244.66;5054264;28;20063;-73
2022/10/14 07:02:43;;;;;;;96.65;25.85;;;;;;;11.48;100.00;101244.28;5054263;28;20033;-74
2022/10/14 07:05:08;;;;;;;111.72;26.90;;;;;;;11.50;100.00;101241.47;5054141;28;20059;-74
2022/10/14 07:07:34;;;;;;;119.72;28.58;;;;;;;11.53;100.00;101236.69;5053826;28;20033;-73
2022/10/14 07:09:59;;;;;;;124.28;30.17;;;;;;;11.57;100.00;101240.78;5054279;28;20457;-74
2022/10/14 07:12:25;;;;;;;132.82;31.63;;;;;;;11.59;100.00;101244.16;5053485;28;20456;-74
2022/10/14 07:14:51;;;;;;;134.73;32.25;;;;;;;11.61;100.00;101239.53;5053720;28;20382;-73
2022/10/14 07:17:16;;;;;;;148.35;32.15;;;;;;;11.63;100.00;101228.75;5053953;28;20111;-74
2022/10/14 07:19:41;;;;;;;145.55;33.25;;;;;;;11.68;100.00;101231.00;5053712;28;20036;-74
2022/10/14 07:22:07;;;;;;;134.00;32.63;;;;;;;11.68;100.00;101226.50;5035982;28;20527;-76
2022/10/14 07:24:32;;;;;;;155.57;33.80;;;;;;;11.71;100.00;101234.22;5030895;28;20113;-80
2022/10/14 07:26:57;;;;;;;140.48;32.03;;;;;;;11.72;100.00;101233.25;5031010;28;20116;-76
2022/10/14 07:29:23;;;;;;;139.77;33.83;;;;;;;11.75;100.00;101240.97;5029983;28;20037;-78
2022/10/14 07:31:48;;;;;;;138.57;33.05;;;;;;;11.74;100.00;101241.94;5029286;28;20041;-77
2022/10/14 07:34:13;;;;;;;147.55;32.78;;;;;;;11.77;100.00;101240.84;5030679;28;20040;-76
2022/10/14 07:36:39;;;;;;;130.00;31.77;;;;;;;11.78;100.00;101242.53;5029885;28;20037;-76
2022/10/14 07:39:04;;;;;;;124.20;32.42;;;;;;;11.79;100.00;101242.41;5029898;28;20069;-78
2022/10/14 07:41:30;;;;;;;120.30;30.50;;;;;;;11.81;100.00;101240.41;5030770;28;20048;-76
2022/10/14 07:44:04;;;;;;;127.20;30.80;;;;;;;11.82;100.00;101241.25;5029110;28;20493;-77
2022/10/14 07:46:31;;;;;;;125.57;31.05;;;;;;;11.84;100.00;101233.97;5030689;28;20509;-76
2022/10/14 07:49:04;;;;;;;123.30;29.05;;;;;;;11.86;100.00;101232.00;5030120;28;20044;-76
2022/10/14 07:51:31;;;;;;;116.43;31.35;;;;;;;11.88;100.00;101235.38;5030608;28;20098;-75
2022/10/14 07:53:57;;;;;;;119.45;30.80;;;;;;;11.90;100.00;101232.59;5030199;28;20037;-75
2022/10/14 07:56:23;;;;;;;127.22;31.10;;;;;;;11.92;100.00;101233.28;5030384;28;20098;-74
2022/10/14 07:58:49;;;;;;;121.60;31.67;;;;;;;11.92;100.00;101235.94;5030153;28;20129;-75
2022/10/14 08:01:17;;;;;;;123.70;31.45;;;;;;;11.93;100.00;101237.69;5029581;28;20033;-73
2022/10/14 08:03:43;;;;;;;125.00;30.88;;;;;;;11.96;100.00;101229.41;5030086;28;20044;-75
2022/10/14 08:06:09;;;;;;;120.57;31.88;;;;;;;11.98;100.00;101232.75;5029248;28;20033;-75
2022/10/14 08:08:35;;;;;;;121.88;30.67;;;;;;;12.00;100.00;101230.78;5030022;28;20025;-77
2022/10/14 08:11:01;;;;;;;121.28;31.27;;;;;;;12.02;100.00;101233.31;5030281;28;20043;-76
2022/10/14 08:13:27;;;;;;;120.55;30.70;;;;;;;12.05;100.00;101233.06;5030279;28;20045;-74
2022/10/14 08:15:52;;;;;;;123.75;31.85;;;;;;;12.08;100.00;101228.28;5029964;28;20117;-73
2022/10/14 08:18:17;;;;;;;126.47;31.33;;;;;;;12.13;100.00;101230.53;5028990;28;20041;-74
2022/10/14 08:20:43;;;;;;;115.68;29.80;;;;;;;12.15;100.00;101218.75;5029589;28;20039;-74
2022/10/14 08:23:08;;;;;;;106.40;30.35;;;;;;;12.21;100.00;101228.00;5031720;28;20029;-73
2022/10/14 08:25:35;;;;;;;117.60;29.52;;;;;;;12.25;100.00;101228.56;5049947;28;20072;-73
2022/10/14 08:28:01;;;;;;;106.68;28.58;;;;;;;12.29;100.00;101229.97;5049418;28;20801;-71
2022/10/14 08:30:26;;;;;;;100.65;26.00;;;;;;;12.33;100.00;101228.69;5049663;28;20057;-73
2022/10/14 08:32:51;;;;;;;82.80;25.15;;;;;;;12.36;100.00;101231.09;5049349;28;20102;-72
2022/10/14 08:35:17;;;;;;;82.90;23.73;;;;;;;12.41;100.00;101230.69;5049931;28;20037;-72
2022/10/14 08:37:42;;;;;;;81.97;23.35;;;;;;;12.43;100.00;101221.53;5049582;28;20045;-72
2022/10/14 08:40:14;;;;;;;70.60;22.70;;;;;;;12.51;100.00;101223.50;5049879;28;20084;-72
2022/10/14 08:43:04;;;;;;;80.05;21.08;;;;;;;12.56;100.00;101228.41;5049815;28;20033;-71
2022/10/14 08:45:34;;;;;;;63.60;18.95;;;;;;;12.54;100.00;101223.22;5049647;28;20036;-73
2022/10/14 08:48:04;;;;;;;58.75;18.20;;;;;;;12.53;100.00;101224.19;5045165;28;20686;-72
2022/10/14 08:50:32;;;;;;;52.97;17.30;;;;;;;12.52;100.00;101210.03;5041911;28;20087;-75
2022/10/14 08:53:05;;;;;;;56.10;17.52;;;;;;;12.52;100.00;101209.16;5057473;28;20763;-74
2022/10/14 08:55:46;;;;;;;63.88;17.98;;;;;;;12.51;100.00;101211.00;5057697;28;20041;-74
2022/10/14 08:58:41;;;;;;;51.40;16.90;;;;;;;12.55;100.00;101213.38;5067166;28;20078;-73
2022/10/14 09:01:14;;;;;;;54.03;17.23;;;;;;;12.55;100.00;101203.53;5053615;28;20503;-76
2022/10/14 09:03:41;;;;;;;55.72;17.40;;;;;;;12.55;100.00;101214.19;5053147;28;20538;-72
2022/10/14 09:06:14;;;;;;;51.15;16.63;;;;;;;12.53;100.00;101206.34;5064195;28;20048;-77
2022/10/14 09:08:43;;;;;;;56.22;16.60;;;;;;;12.52;100.00;101206.47;5050774;28;20163;-72
2022/10/14 09:11:16;;;;;;;47.47;17.30;;;;;;;12.51;100.00;101202.97;5046041;28;20029;-74
2022/10/14 09:13:45;;;;;;;46.97;16.60;;;;;;;12.49;100.00;101199.59;5037287;28;20111;-75
2022/10/14 09:16:23;;;;;;;45.08;16.27;;;;;;;12.45;100.00;101197.34;5063365;28;20037;-75
2022/10/14 09:18:53;;;;;;;48.50;16.45;;;;;;;12.44;100.00;101196.53;5062100;28;20028;-75
2022/10/14 09:21:34;;;;;;;45.07;16.33;;;;;;;12.43;100.00;101194.84;5051532;28;20030;-73
2022/10/14 09:24:12;;;;;;;45.08;15.60;;;;;;;12.46;100.00;101199.06;5063590;28;20044;-74
2022/10/14 09:26:43;;;;;;;48.78;16.30;;;;;;;12.47;100.00;101201.56;5070004;28;20032;-75
2022/10/14 09:29:24;;;;;;;41.83;16.23;;;;;;;12.48;100.00;101205.94;5058180;28;20037;-75
2022/10/14 09:31:50;;;;;;;44.83;16.20;;;;;;;12.50;100.00;101200.47;5061360;28;20297;-78
2022/10/14 09:34:19;;;;;;;43.35;16.10;;;;;;;12.52;100.00;101199.34;5049466;28;20037;-74
2022/10/14 09:36:48;;;;;;;43.85;16.55;;;;;;;12.55;100.00;101200.03;5067220;28;21114;-74
2022/10/14 09:39:13;;;;;;;45.53;15.98;;;;;;;12.60;100.00;101200.44;5064310;28;20086;-74
2022/10/14 09:41:39;;;;;;;40.88;15.48;;;;;;;12.61;100.00;101202.13;5051273;28;20477;-73
2022/10/14 09:44:21;;;;;;;37.90;15.05;;;;;;;12.62;100.00;101193.97;5048726;28;20036;-75
2022/10/14 09:46:58;;;;;;;35.15;15.48;;;;;;;12.65;100.00;101192.84;5051491;28;20049;-73
2022/10/14 09:49:33;;;;;;;32.30;14.38;;;;;;;12.65;100.00;101193.69;5050657;28;20489;-73
2022/10/14 09:52:01;;;;;;;34.25;14.27;;;;;;;12.66;100.00;101186.53;5055563;28;20031;-70
2022/10/14 09:54:29;;;;;;;35.80;14.93;;;;;;;12.68;100.00;101196.06;5059745;28;20104;-74
2022/10/14 09:57:18;;;;;;;33.45;14.70;;;;;;;12.69;100.00;101187.06;5056663;28;20094;-74
2022/10/14 09:59:54;;;;;;;37.92;15.73;;;;;;;12.73;100.00;101189.44;5056408;28;20025;-77
2022/10/14 10:02:39;;;;;;;31.52;13.77;;;;;;;12.78;100.00;101198.72;5054204;28;20049;-73
2022/10/14 10:05:32;;;;;;;37.88;14.57;;;;;;;12.81;100.00;101194.94;5044596;28;20071;-73
2022/10/14 10:08:02;;;;;;;32.72;14.80;;;;;;;12.80;100.00;101193.22;5051697;28;20033;-74
2022/10/14 10:10:30;;;;;;;33.28;14.73;;;;;;;12.80;100.00;101187.88;5054494;28;20037;-75
2022/10/14 10:12:59;;;;;;;33.17;15.05;;;;;;;12.78;100.00;101189.84;5054767;28;20052;-75
2022/10/14 10:15:24;;;;;;;32.10;14.60;;;;;;;12.75;100.00;101187.47;5054524;28;20426;-75
2022/10/14 10:17:51;;;;;;;37.05;15.23;;;;;;;12.76;100.00;101190.00;5054367;28;20039;-75
2022/10/14 10:20:19;;;;;;;33.00;15.07;;;;;;;12.77;100.00;101185.50;5054456;28;20044;-73
2022/10/14 10:22:45;;;;;;;36.45;15.00;;;;;;;12.80;100.00;101182.56;5054532;28;20037;-74
2022/10/14 10:25:10;;;;;;;31.67;14.35;;;;;;;12.85;100.00;101174.94;5054316;28;20546;-73
2022/10/14 10:27:36;;;;;;;34.15;14.25;;;;;;;12.85;100.00;101173.13;5054689;28;20056;-75
2022/10/14 10:30:16;;;;;;;29.48;13.23;;;;;;;12.88;100.00;101175.50;5054364;28;20044;-76
2022/10/14 10:33:10;;;;;;;27.65;14.05;;;;;;;12.93;100.00;101175.06;5054512;28;20103;-74
2022/10/14 10:36:17;;;;;;;32.13;13.43;;;;;;;12.96;100.00;101173.94;5052513;28;20113;-75
2022/10/14 10:39:04;;;;;;;33.13;13.85;;;;;;;12.97;100.00;101171.13;5053017;28;20041;-73
2022/10/14 10:41:44;;;;;;;27.65;12.68;;;;;;;13.02;100.00;101174.16;5051384;28;20421;-74
2022/10/14 10:44:24;;;;;;;29.08;12.65;;;;;;;13.03;100.00;101165.19;5053925;28;20033;-73
2022/10/14 10:47:10;;;;;;;27.70;12.33;;;;;;;13.08;100.00;101171.88;5054450;28;20037;-74
2022/10/14 10:50:09;;;;;;;30.60;11.90;;;;;;;13.10;100.00;101169.94;5054677;28;20021;-73
2022/10/14 10:53:04;;;;;;;24.77;11.60;;;;;;;13.09;100.00;101169.06;5054220;28;20025;-73
2022/10/14 10:56:17;;;;;;;28.63;13.10;;;;;;;13.15;100.00;101175.66;5054487;28;20063;-73
2022/10/14 10:59:36;;;;;;;26.30;12.82;;;;;;;13.22;100.00;101174.91;5052569;28;20041;-74
2022/10/14 11:02:19;;;;;;;26.95;12.73;;;;;;;13.33;100.00;101163.22;5053899;28;20517;-74
2022/10/14 11:05:06;;;;;;;30.35;14.02;;;;;;;13.39;100.00;101159.09;5054139;28;20068;-73
2022/10/14 11:14:08;;;;;;;21.60;10.77;;;;;;;13.72;100.00;101151.47;5053467;28;20543;-73
2022/10/14 11:17:15;;;;;;;15.95;9.00;;;;;;;13.74;100.00;101146.78;5055482;28;20112;-72
2022/10/14 11:19:43;;;;;;;13.75;8.38;;;;;;;13.78;100.00;101141.97;5051694;28;20037;-73
2022/10/14 11:22:45;;;;;;;13.85;7.47;;;;;;;13.79;100.00;101147.16;5050925;28;20064;-72